createdAt,value
2022-12-26T00:00:55.005Z,4.80
2022-12-26T00:03:23.771Z,5.53
2022-12-26T00:05:52.418Z,4.80
2022-12-26T00:08:21.017Z,4.90
2022-12-26T00:10:49.933Z,5.27
2022-12-26T00:13:39.696Z,4.77
2022-12-26T00:16:10.163Z,4.43
2022-12-26T00:18:38.751Z,5.00
2022-12-26T00:21:07.482Z,4.60
2022-12-26T00:23:36.801Z,4.20
2022-12-26T00:26:05.673Z,3.77
2022-12-26T00:28:34.306Z,3.90
2022-12-26T00:31:06.702Z,4.23
2022-12-26T00:33:36.833Z,4.10
2022-12-26T00:36:05.740Z,3.70
2022-12-26T00:38:34.793Z,3.90
2022-12-26T00:41:03.355Z,3.77
2022-12-26T00:43:32.040Z,3.30
2022-12-26T00:46:00.664Z,3.90
2022-12-26T00:48:29.393Z,3.30
2022-12-26T00:50:59.409Z,3.30
2022-12-26T00:53:28.037Z,4.20
2022-12-26T00:55:56.603Z,3.10
2022-12-26T00:58:25.425Z,3.63
2022-12-26T01:00:54.167Z,3.20
2022-12-26T01:03:22.851Z,2.90
2022-12-26T01:05:52.243Z,3.93
2022-12-26T01:08:24.868Z,3.43
2022-12-26T01:10:53.976Z,2.77
2022-12-26T01:13:22.596Z,3.20
2022-12-26T01:15:51.721Z,3.40
2022-12-26T01:18:20.418Z,3.33
2022-12-26T01:20:49.523Z,3.13
2022-12-26T01:23:18.266Z,3.33
2022-12-26T01:26:15.826Z,3.40
2022-12-26T01:28:36.823Z,3.40
2022-12-26T01:31:05.735Z,3.77
2022-12-26T01:33:34.457Z,2.87
2022-12-26T01:36:03.011Z,3.33
2022-12-26T01:38:31.572Z,3.53
2022-12-26T01:41:20.960Z,3.20
2022-12-26T01:43:57.547Z,2.80
2022-12-26T01:46:32.139Z,3.30
2022-12-26T01:49:02.064Z,3.13
2022-12-26T01:51:31.754Z,3.03
2022-12-26T01:54:40.734Z,2.77
2022-12-26T01:56:50.510Z,3.13
2022-12-26T01:59:20.702Z,3.57
2022-12-26T02:01:49.936Z,3.20
2022-12-26T02:04:37.609Z,2.63
2022-12-26T02:07:06.250Z,2.50
2022-12-26T02:09:34.986Z,2.80
2022-12-26T02:12:34.489Z,2.80
2022-12-26T02:14:57.631Z,3.10
2022-12-26T02:17:26.226Z,2.90
2022-12-26T02:19:59.137Z,3.00
2022-12-26T02:23:01.951Z,2.97
2022-12-26T02:25:52.507Z,2.27
2022-12-26T02:28:38.797Z,3.00
2022-12-26T02:31:08.924Z,2.50
2022-12-26T02:33:41.684Z,2.80
2022-12-26T02:36:26.083Z,2.87
2022-12-26T02:39:01.185Z,3.07
2022-12-26T02:41:33.044Z,3.17
2022-12-26T02:44:27.364Z,3.40
2022-12-26T02:47:05.972Z,2.80
2022-12-26T02:49:56.528Z,2.80
2022-12-26T02:52:47.322Z,3.67
2022-12-26T02:55:35.358Z,2.70
2022-12-26T02:58:23.071Z,3.30
2022-12-26T03:01:09.011Z,3.87
2022-12-26T03:03:56.461Z,3.20
2022-12-26T03:06:42.904Z,2.80
2022-12-26T03:09:30.064Z,2.73
2022-12-26T03:12:18.642Z,3.27
2022-12-26T03:14:48.755Z,3.27
2022-12-26T03:17:25.862Z,2.67
2022-12-26T03:20:03.044Z,2.70
2022-12-26T03:22:38.095Z,3.10
2022-12-26T03:25:26.154Z,3.00
2022-12-26T03:27:55.179Z,2.97
2022-12-26T03:30:41.288Z,3.33
2022-12-26T03:33:30.566Z,3.43
2022-12-26T03:35:59.553Z,3.27
2022-12-26T03:38:29.800Z,2.30
2022-12-26T03:41:18.151Z,3.17
2022-12-26T03:44:13.154Z,2.97
2022-12-26T03:47:06.985Z,3.37
2022-12-26T03:49:54.597Z,2.70
2022-12-26T03:52:43.550Z,3.33
2022-12-26T03:55:34.769Z,3.23
2022-12-26T03:58:22.301Z,3.57
2022-12-26T04:01:08.498Z,2.90
2022-12-26T04:03:55.154Z,3.60
2022-12-26T04:06:48.422Z,3.50
2022-12-26T04:09:43.524Z,4.07
2022-12-26T04:12:30.335Z,2.87
2022-12-26T04:15:18.453Z,3.30
2022-12-26T04:18:08.583Z,3.10
2022-12-26T04:20:41.010Z,3.27
2022-12-26T04:23:29.860Z,3.33
2022-12-26T04:26:20.337Z,3.47
2022-12-26T04:29:06.450Z,2.80
2022-12-26T04:31:54.102Z,3.17
2022-12-26T04:34:45.231Z,3.30
2022-12-26T04:37:34.217Z,2.80
2022-12-26T04:40:20.495Z,3.20
2022-12-26T04:43:48.154Z,3.50
2022-12-26T04:45:56.757Z,3.43
2022-12-26T04:48:42.736Z,4.23
2022-12-26T04:51:11.296Z,3.33
2022-12-26T04:53:39.916Z,3.50
2022-12-26T04:56:09.535Z,3.40
2022-12-26T04:58:39.518Z,3.47
2022-12-26T05:01:22.046Z,4.47
2022-12-26T05:04:07.927Z,3.37
2022-12-26T05:06:54.300Z,2.87
2022-12-26T05:09:39.635Z,3.60
2022-12-26T05:12:09.063Z,3.70
2022-12-26T05:14:39.025Z,3.53
2022-12-26T05:17:24.466Z,3.63
2022-12-26T05:20:10.688Z,3.33
2022-12-26T05:22:58.625Z,3.87
2022-12-26T05:25:45.715Z,3.70
2022-12-26T05:28:32.215Z,3.97
2022-12-26T05:31:02.955Z,3.67
2022-12-26T05:33:48.840Z,3.50
2022-12-26T05:36:17.897Z,3.17
2022-12-26T05:38:46.432Z,3.70
2022-12-26T05:41:15.101Z,4.20
2022-12-26T05:43:43.659Z,3.50
2022-12-26T05:46:13.625Z,3.13
2022-12-26T05:48:42.249Z,3.20
2022-12-26T05:51:10.840Z,3.70
2022-12-26T05:53:39.430Z,3.37
2022-12-26T05:56:08.857Z,3.70
2022-12-26T05:58:37.492Z,3.60
2022-12-26T06:01:07.879Z,3.10
2022-12-26T06:03:37.913Z,2.77
2022-12-26T06:06:06.895Z,3.00
2022-12-26T06:08:35.410Z,2.97
2022-12-26T06:11:07.727Z,3.10
2022-12-26T06:13:36.417Z,3.57
2022-12-26T06:16:07.179Z,3.00
2022-12-26T06:18:38.252Z,3.20
2022-12-26T06:21:07.482Z,3.30
2022-12-26T06:23:36.309Z,3.57
2022-12-26T06:26:05.242Z,2.83
2022-12-26T06:28:34.523Z,3.40
2022-12-26T06:31:06.591Z,3.40
2022-12-26T06:33:36.826Z,2.50
2022-12-26T06:36:06.559Z,2.77
2022-12-26T06:38:35.147Z,3.43
2022-12-26T06:41:05.271Z,3.57
2022-12-26T06:43:33.916Z,2.67
2022-12-26T06:46:03.440Z,3.00
2022-12-26T06:48:32.133Z,3.07
2022-12-26T06:51:03.974Z,2.93
2022-12-26T06:53:32.868Z,2.90
2022-12-26T06:56:07.182Z,2.87
2022-12-26T06:58:35.944Z,2.23
2022-12-26T07:01:07.899Z,3.23
2022-12-26T07:03:36.676Z,3.23
2022-12-26T07:06:08.109Z,3.40
2022-12-26T07:08:36.722Z,2.50
2022-12-26T07:11:05.398Z,2.70
2022-12-26T07:13:33.994Z,2.50
2022-12-26T07:16:02.616Z,2.80
2022-12-26T07:18:31.186Z,2.63
2022-12-26T07:20:59.717Z,2.67
2022-12-26T07:23:30.886Z,2.80
2022-12-26T07:25:59.482Z,2.40
2022-12-26T07:28:28.028Z,2.40
2022-12-26T07:30:57.501Z,2.73
2022-12-26T07:33:26.090Z,2.17
2022-12-26T07:35:54.800Z,2.47
2022-12-26T07:38:23.367Z,2.93
2022-12-26T07:40:53.355Z,2.20
2022-12-26T07:43:21.886Z,2.30
2022-12-26T07:45:50.691Z,2.30
2022-12-26T07:48:19.345Z,2.67
2022-12-26T07:50:49.343Z,2.00
2022-12-26T07:53:17.945Z,2.67
2022-12-26T07:55:46.549Z,1.97
2022-12-26T07:58:16.609Z,3.03
2022-12-26T08:00:45.203Z,2.20
2022-12-26T08:03:13.927Z,2.20
2022-12-26T08:05:45.412Z,2.67
2022-12-26T08:08:14.354Z,3.00
2022-12-26T08:10:42.937Z,2.17
2022-12-26T08:13:11.498Z,2.30
2022-12-26T08:15:41.570Z,2.50
2022-12-26T08:18:10.175Z,2.47
2022-12-26T08:20:38.853Z,17.87
2022-12-26T08:23:07.431Z,4.60
2022-12-26T08:25:36.414Z,2.67
2022-12-26T08:28:05.147Z,2.67
2022-12-26T08:30:33.721Z,2.37
2022-12-26T08:33:03.672Z,2.67
2022-12-26T08:35:32.267Z,3.00
2022-12-26T08:38:01.169Z,2.90
2022-12-26T08:40:42.566Z,2.70
2022-12-26T08:43:30.317Z,3.20
2022-12-26T08:46:01.717Z,2.60
2022-12-26T08:48:31.803Z,2.80
2022-12-26T08:51:01.679Z,2.90
2022-12-26T08:53:30.616Z,2.67
2022-12-26T08:55:59.218Z,2.53
2022-12-26T08:58:27.768Z,2.63
2022-12-26T09:00:56.567Z,2.40
2022-12-26T09:03:25.276Z,3.20
2022-12-26T09:05:55.357Z,3.00
2022-12-26T09:08:25.579Z,3.10
2022-12-26T09:10:54.103Z,3.33
2022-12-26T09:13:22.732Z,3.00
2022-12-26T09:15:51.643Z,3.20
2022-12-26T09:18:20.483Z,4.40
2022-12-26T09:20:49.052Z,3.77
2022-12-26T09:23:18.995Z,3.10
2022-12-26T09:25:47.540Z,3.43
2022-12-26T09:28:16.117Z,2.80
2022-12-26T09:30:45.275Z,3.47
2022-12-26T09:33:13.964Z,3.60
2022-12-26T09:35:42.542Z,3.23
2022-12-26T09:38:11.142Z,3.30
2022-12-26T09:40:49.505Z,2.93
2022-12-26T09:43:21.768Z,2.83
2022-12-26T09:45:55.658Z,2.30
2022-12-26T09:48:27.593Z,2.60
2022-12-26T09:50:56.208Z,2.90
2022-12-26T09:53:30.651Z,3.17
2022-12-26T09:56:01.776Z,2.80
2022-12-26T09:58:31.527Z,2.90
2022-12-26T10:01:03.163Z,3.50
2022-12-26T10:03:31.768Z,22.73
2022-12-26T10:06:11.895Z,15.60
2022-12-26T10:09:03.455Z,3.33
2022-12-26T10:11:41.451Z,2.50
2022-12-26T10:14:19.665Z,2.70
2022-12-26T10:16:54.087Z,3.13
2022-12-26T10:19:44.551Z,2.97
2022-12-26T10:22:28.944Z,3.00
2022-12-26T10:24:57.841Z,2.83
2022-12-26T10:27:28.519Z,2.90
2022-12-26T10:29:57.987Z,3.60
2022-12-26T10:32:30.814Z,3.77
2022-12-26T10:34:59.422Z,3.23
2022-12-26T10:37:28.685Z,3.83
2022-12-26T10:39:58.950Z,3.07
2022-12-26T10:42:31.096Z,3.23
2022-12-26T10:44:59.740Z,3.00
2022-12-26T10:47:29.155Z,2.40
2022-12-26T10:49:59.893Z,2.47
2022-12-26T10:52:32.815Z,2.53
2022-12-26T10:55:28.384Z,2.77
2022-12-26T10:57:52.700Z,2.90
2022-12-26T11:00:22.287Z,2.50
2022-12-26T11:03:04.364Z,2.20
2022-12-26T11:06:05.868Z,2.00
2022-12-26T11:08:23.434Z,1.90
2022-12-26T11:11:03.425Z,2.20
2022-12-26T11:13:36.566Z,2.13
2022-12-26T11:16:05.524Z,2.70
2022-12-26T11:18:36.201Z,2.00
2022-12-26T11:21:14.289Z,2.13
2022-12-26T11:23:42.856Z,2.40
2022-12-26T11:26:21.721Z,2.63
2022-12-26T11:29:06.046Z,3.03
2022-12-26T11:31:34.667Z,2.70
2022-12-26T11:34:03.277Z,2.70
2022-12-26T11:36:32.721Z,2.40
2022-12-26T11:39:03.173Z,3.30
2022-12-26T11:41:41.643Z,6.13
2022-12-26T11:44:26.494Z,4.30
2022-12-26T11:46:58.634Z,3.43
2022-12-26T11:49:30.963Z,3.80
2022-12-26T11:52:00.310Z,21.87
2022-12-26T11:54:34.729Z,14.13
2022-12-26T11:57:17.762Z,16.00
2022-12-26T11:59:47.835Z,10.00
2022-12-26T12:02:30.067Z,6.67
2022-12-26T12:05:01.271Z,30.00
2022-12-26T12:07:51.217Z,19.53
2022-12-26T12:10:47.645Z,9.40
2022-12-26T12:13:22.424Z,5.53
2022-12-26T12:15:55.365Z,4.63
2022-12-26T12:18:32.504Z,3.10
2022-12-26T12:21:04.376Z,5.00
2022-12-26T12:23:41.332Z,2.93
2022-12-26T12:26:13.603Z,2.73
2022-12-26T12:29:13.050Z,2.80
2022-12-26T12:31:50.516Z,2.83
2022-12-26T12:34:24.544Z,2.73
2022-12-26T12:37:04.016Z,3.13
2022-12-26T12:39:39.406Z,2.60
2022-12-26T12:42:21.775Z,3.20
2022-12-26T12:45:21.964Z,2.80
2022-12-26T12:47:58.290Z,2.43
2022-12-26T12:50:29.787Z,2.70
2022-12-26T12:53:02.898Z,3.10
2022-12-26T12:55:45.401Z,2.57
2022-12-26T12:58:18.223Z,3.13
2022-12-26T13:00:48.366Z,2.80
2022-12-26T13:03:25.209Z,2.97
2022-12-26T13:05:57.045Z,4.40
2022-12-26T13:08:26.624Z,3.17
2022-12-26T13:10:58.903Z,3.33
2022-12-26T13:13:28.949Z,3.20
2022-12-26T13:16:00.125Z,2.87
2022-12-26T13:18:32.507Z,2.70
2022-12-26T13:21:02.464Z,3.30
2022-12-26T13:23:51.051Z,3.33
2022-12-26T13:26:21.118Z,2.77
2022-12-26T13:28:54.472Z,2.90
2022-12-26T13:31:23.226Z,3.27
2022-12-26T13:33:53.197Z,3.13
2022-12-26T13:36:38.618Z,2.43
2022-12-26T13:39:37.894Z,3.00
2022-12-26T13:42:50.269Z,2.90
2022-12-26T13:45:56.585Z,2.30
2022-12-26T13:48:47.899Z,3.50
2022-12-26T13:51:54.536Z,3.07
2022-12-26T13:54:23.944Z,2.80
2022-12-26T13:57:26.075Z,2.93
2022-12-26T14:00:06.134Z,2.60
2022-12-26T14:03:18.709Z,2.90
2022-12-26T14:06:08.386Z,2.90
2022-12-26T14:08:43.387Z,2.90
2022-12-26T14:11:22.058Z,2.20
2022-12-26T14:14:08.111Z,2.33
2022-12-26T14:16:39.319Z,3.13
2022-12-26T14:19:13.720Z,2.60
2022-12-26T14:21:47.829Z,2.83
2022-12-26T14:24:27.145Z,3.47
2022-12-26T14:26:58.676Z,3.77
2022-12-26T14:29:31.620Z,3.30
2022-12-26T14:32:26.161Z,3.40
2022-12-26T14:35:02.402Z,3.43
2022-12-26T14:37:37.015Z,3.50
2022-12-26T14:40:26.531Z,3.50
2022-12-26T14:43:30.360Z,3.73
2022-12-26T14:45:59.318Z,3.60
2022-12-26T14:48:55.990Z,3.60
2022-12-26T14:51:39.175Z,3.43
2022-12-26T14:54:50.854Z,3.33
2022-12-26T14:57:56.322Z,4.00
2022-12-26T15:00:32.527Z,3.73
2022-12-26T15:03:41.978Z,4.37
2022-12-26T15:06:52.486Z,3.67
2022-12-26T15:09:59.330Z,4.70
2022-12-26T15:12:58.731Z,4.07
2022-12-26T15:15:35.505Z,4.60
2022-12-26T15:18:21.171Z,4.60
2022-12-26T15:21:10.560Z,4.30
2022-12-26T15:24:04.192Z,4.10
2022-12-26T15:26:55.243Z,3.77
2022-12-26T15:29:48.945Z,3.40
2022-12-26T15:32:20.435Z,3.37
2022-12-26T15:34:59.266Z,3.80
2022-12-26T15:37:42.668Z,3.43
2022-12-26T15:40:15.849Z,3.30
2022-12-26T15:42:51.546Z,3.87
2022-12-26T15:45:30.915Z,4.70
2022-12-26T15:48:04.672Z,3.30
2022-12-26T15:50:34.782Z,3.13
2022-12-26T15:53:17.279Z,3.53
2022-12-26T15:56:22.580Z,3.43
2022-12-26T15:59:30.747Z,3.40
2022-12-26T16:02:00.172Z,3.33
2022-12-26T16:04:32.115Z,3.90
2022-12-26T16:07:09.164Z,3.47
2022-12-26T16:09:44.381Z,3.13
2022-12-26T16:12:27.434Z,2.73
2022-12-26T16:15:04.402Z,2.70
2022-12-26T16:17:34.051Z,2.87
2022-12-26T16:20:19.076Z,2.50
2022-12-26T16:22:47.281Z,2.50
2022-12-26T16:25:17.800Z,2.33
2022-12-26T16:27:46.411Z,2.40
2022-12-26T16:30:17.125Z,2.07
2022-12-26T16:32:45.783Z,2.10
2022-12-26T16:35:21.032Z,1.67
2022-12-26T16:37:50.377Z,1.73
2022-12-26T16:40:22.123Z,1.60
2022-12-26T16:42:59.733Z,1.80
2022-12-26T16:45:29.012Z,1.53
2022-12-26T16:47:57.644Z,1.70
2022-12-26T16:50:28.632Z,1.43
2022-12-26T16:53:10.983Z,1.60
2022-12-26T16:55:42.127Z,1.37
2022-12-26T16:58:20.198Z,1.70
2022-12-26T17:01:04.590Z,1.40
2022-12-26T17:03:42.871Z,1.07
2022-12-26T17:06:14.113Z,1.60
2022-12-26T17:08:44.730Z,1.83
2022-12-26T17:11:13.421Z,1.60
2022-12-26T17:13:42.020Z,1.50
2022-12-26T17:16:11.289Z,1.10
2022-12-26T17:18:48.712Z,1.40
2022-12-26T17:21:24.435Z,1.47
2022-12-26T17:24:25.250Z,1.80
2022-12-26T17:27:08.587Z,1.73
2022-12-26T17:30:01.905Z,1.40
2022-12-26T17:32:38.489Z,1.47
2022-12-26T17:35:08.929Z,2.33
2022-12-26T17:37:38.846Z,1.73
2022-12-26T17:40:22.482Z,1.70
2022-12-26T17:42:52.027Z,1.70
2022-12-26T17:45:22.541Z,1.63
2022-12-26T17:47:52.700Z,1.30
2022-12-26T17:50:21.335Z,1.73
2022-12-26T17:52:51.321Z,1.40
2022-12-26T17:55:22.862Z,2.47
2022-12-26T17:57:51.428Z,3.30
2022-12-26T18:00:21.048Z,2.47
2022-12-26T18:02:49.809Z,1.57
2022-12-26T18:05:18.646Z,2.50
2022-12-26T18:07:47.396Z,2.80
2022-12-26T18:10:20.503Z,4.90
2022-12-26T18:12:49.158Z,6.00
2022-12-26T18:15:17.818Z,2.47
2022-12-26T18:17:46.475Z,5.00
2022-12-26T18:20:18.091Z,3.60
2022-12-26T18:22:47.716Z,2.97
2022-12-26T18:25:18.268Z,6.80
2022-12-26T18:27:46.895Z,2.27
2022-12-26T18:30:17.430Z,1.40
2022-12-26T18:32:46.155Z,2.00
2022-12-26T18:35:14.727Z,2.20
2022-12-26T18:37:44.387Z,1.80
2022-12-26T18:40:25.187Z,1.87
2022-12-26T18:42:59.422Z,1.37
2022-12-26T18:45:28.030Z,2.03
2022-12-26T18:47:56.717Z,1.43
2022-12-26T18:50:25.417Z,1.70
2022-12-26T18:52:54.343Z,1.90
2022-12-26T18:55:25.289Z,1.67
2022-12-26T18:57:54.319Z,1.80
2022-12-26T19:00:23.121Z,1.87
2022-12-26T19:02:52.091Z,2.00
2022-12-26T19:05:21.648Z,2.20
2022-12-26T19:07:50.418Z,1.80
2022-12-26T19:10:19.512Z,1.67
2022-12-26T19:12:49.852Z,1.50
2022-12-26T19:15:18.458Z,1.40
2022-12-26T19:17:47.223Z,1.20
2022-12-26T19:20:19.818Z,1.70
2022-12-26T19:22:48.656Z,2.50
2022-12-26T19:25:17.618Z,1.40
2022-12-26T19:27:46.317Z,1.00
2022-12-26T19:30:16.884Z,1.50
2022-12-26T19:32:45.535Z,1.77
2022-12-26T19:35:14.289Z,1.30
2022-12-26T19:37:42.943Z,1.10
2022-12-26T19:40:12.610Z,1.30
2022-12-26T19:42:41.118Z,0.87
2022-12-26T19:45:11.146Z,0.90
2022-12-26T19:47:41.124Z,0.90
2022-12-26T19:50:09.948Z,0.80
2022-12-26T19:52:39.526Z,2.03
2022-12-26T19:55:08.813Z,1.00
2022-12-26T19:57:37.335Z,1.57
2022-12-26T20:00:07.901Z,1.80
2022-12-26T20:02:36.647Z,1.97
2022-12-26T20:05:07.939Z,1.40
2022-12-26T20:07:36.544Z,1.33
2022-12-26T20:10:05.603Z,1.73
2022-12-26T20:12:34.186Z,1.23
2022-12-26T20:15:02.876Z,1.53
2022-12-26T20:17:31.447Z,1.60
2022-12-26T20:20:00.115Z,0.90
2022-12-26T20:22:30.135Z,2.53
2022-12-26T20:24:58.927Z,1.80
2022-12-26T20:27:27.574Z,1.10
2022-12-26T20:29:56.345Z,1.00
2022-12-26T20:32:24.953Z,0.90
2022-12-26T20:34:53.533Z,1.37
2022-12-26T20:37:22.133Z,0.93
2022-12-26T20:39:52.189Z,0.97
2022-12-26T20:42:20.765Z,1.00
2022-12-26T20:44:49.301Z,0.70
2022-12-26T20:47:17.991Z,1.00
2022-12-26T20:49:46.558Z,0.80
2022-12-26T20:52:16.573Z,1.23
2022-12-26T20:54:46.832Z,1.00
2022-12-26T20:57:16.864Z,1.47
2022-12-26T20:59:45.432Z,1.00
2022-12-26T21:02:14.216Z,1.00
2022-12-26T21:04:42.987Z,0.83
2022-12-26T21:07:11.554Z,1.33
2022-12-26T21:09:45.938Z,1.50
2022-12-26T21:12:16.664Z,0.90
2022-12-26T21:14:45.231Z,1.80
2022-12-26T21:17:17.964Z,1.53
2022-12-26T21:19:46.769Z,2.20
2022-12-26T21:22:15.333Z,1.57
2022-12-26T21:24:43.876Z,1.93
2022-12-26T21:27:12.511Z,1.13
2022-12-26T21:29:42.613Z,2.20
2022-12-26T21:32:11.258Z,3.10
2022-12-26T21:34:40.028Z,1.17
2022-12-26T21:37:26.250Z,1.77
2022-12-26T21:39:54.914Z,1.43
2022-12-26T21:42:23.451Z,1.50
2022-12-26T21:44:53.364Z,1.30
2022-12-26T21:47:22.460Z,1.47
2022-12-26T21:49:51.061Z,1.60
2022-12-26T21:52:19.658Z,1.40
2022-12-26T21:55:05.532Z,1.17
2022-12-26T21:57:35.081Z,1.20
2022-12-26T22:00:05.957Z,1.33
2022-12-26T22:02:52.966Z,1.63
2022-12-26T22:05:22.699Z,1.27
2022-12-26T22:07:53.864Z,1.53
2022-12-26T22:10:39.783Z,1.57
2022-12-26T22:13:08.396Z,1.40
2022-12-26T22:16:01.995Z,1.97
2022-12-26T22:18:31.091Z,1.23
2022-12-26T22:21:03.668Z,1.37
2022-12-26T22:23:32.238Z,1.50
2022-12-26T22:26:00.825Z,1.50
2022-12-26T22:28:30.600Z,1.20
2022-12-26T22:31:00.805Z,1.60
2022-12-26T22:33:30.194Z,1.70
2022-12-26T22:36:05.963Z,1.63
2022-12-26T22:38:34.836Z,1.10
2022-12-26T22:41:03.544Z,1.40
2022-12-26T22:43:32.237Z,1.30
2022-12-26T22:46:02.236Z,1.50
2022-12-26T22:48:30.846Z,1.80
2022-12-26T22:50:59.496Z,1.00
2022-12-26T22:53:29.006Z,1.23
2022-12-26T22:55:59.209Z,1.53
2022-12-26T22:58:28.261Z,2.20
2022-12-26T23:00:56.961Z,1.20
2022-12-26T23:03:27.261Z,1.70
2022-12-26T23:05:56.634Z,1.40
2022-12-26T23:08:26.798Z,2.03
2022-12-26T23:10:56.176Z,1.23
2022-12-26T23:13:26.259Z,1.77
2022-12-26T23:15:57.226Z,1.57
2022-12-26T23:18:51.915Z,1.70
2022-12-26T23:21:40.059Z,1.63
2022-12-26T23:24:12.683Z,1.40
2022-12-26T23:26:41.979Z,1.27
2022-12-26T23:29:30.236Z,1.97
2022-12-26T23:31:58.870Z,2.70
2022-12-26T23:34:28.876Z,1.40
2022-12-26T23:36:57.467Z,1.67
2022-12-26T23:39:26.108Z,1.77
2022-12-26T23:41:54.668Z,1.67
2022-12-26T23:44:23.247Z,1.93
2022-12-26T23:46:51.935Z,2.77
2022-12-26T23:49:20.572Z,1.00
2022-12-26T23:51:50.854Z,1.50
2022-12-26T23:54:19.418Z,1.83
2022-12-26T23:56:47.948Z,1.30
2022-12-26T23:59:16.576Z,1.73
